sensor_id;sensor_type;location;lat;lon;timestamp;temperature;humidity
75786;DHT22;64402;44.708;37.644;2023-08-31T00:00:41;22.75;80.40
75786;DHT22;64402;44.708;37.644;2023-08-31T00:03:08;22.73;80.43
75786;DHT22;64402;44.708;37.644;2023-08-31T00:05:43;22.71;80.37
75786;DHT22;64402;44.708;37.644;2023-08-31T00:08:10;22.68;80.65
75786;DHT22;64402;44.708;37.644;2023-08-31T00:10:40;22.67;80.65
75786;DHT22;64402;44.708;37.644;2023-08-31T00:13:07;22.62;80.53
75786;DHT22;64402;44.708;37.644;2023-08-31T00:15:33;22.63;81.41
75786;DHT22;64402;44.708;37.644;2023-08-31T00:18:02;22.72;80.42
75786;DHT22;64402;44.708;37.644;2023-08-31T00:20:31;22.80;80.56
75786;DHT22;64402;44.708;37.644;2023-08-31T00:22:59;22.83;80.76
75786;DHT22;64402;44.708;37.644;2023-08-31T00:25:26;22.82;80.35
75786;DHT22;64402;44.708;37.644;2023-08-31T00:27:52;22.83;80.29
75786;DHT22;64402;44.708;37.644;2023-08-31T00:30:20;22.86;80.51
75786;DHT22;64402;44.708;37.644;2023-08-31T00:32:46;22.88;80.05
75786;DHT22;64402;44.708;37.644;2023-08-31T00:35:19;22.90;80.02
75786;DHT22;64402;44.708;37.644;2023-08-31T00:37:45;22.90;80.34
75786;DHT22;64402;44.708;37.644;2023-08-31T00:40:11;22.87;79.92
75786;DHT22;64402;44.708;37.644;2023-08-31T00:42:40;22.84;80.54
75786;DHT22;64402;44.708;37.644;2023-08-31T00:45:06;22.81;80.23
75786;DHT22;64402;44.708;37.644;2023-08-31T00:47:33;22.78;80.54
75786;DHT22;64402;44.708;37.644;2023-08-31T00:49:59;22.76;80.56
75786;DHT22;64402;44.708;37.644;2023-08-31T00:52:26;22.73;80.83
75786;DHT22;64402;44.708;37.644;2023-08-31T00:54:52;22.73;80.68
75786;DHT22;64402;44.708;37.644;2023-08-31T00:57:19;22.72;80.78
75786;DHT22;64402;44.708;37.644;2023-08-31T00:59:45;22.67;81.15
75786;DHT22;64402;44.708;37.644;2023-08-31T01:02:30;22.67;81.23
75786;DHT22;64402;44.708;37.644;2023-08-31T01:08:11;22.62;82.19
75786;DHT22;64402;44.708;37.644;2023-08-31T01:10:58;22.61;81.63
75786;DHT22;64402;44.708;37.644;2023-08-31T01:13:30;22.62;81.01
75786;DHT22;64402;44.708;37.644;2023-08-31T01:16:02;22.62;81.39
75786;DHT22;64402;44.708;37.644;2023-08-31T01:18:30;22.61;81.38
75786;DHT22;64402;44.708;37.644;2023-08-31T01:21:02;22.63;81.30
75786;DHT22;64402;44.708;37.644;2023-08-31T01:23:59;22.66;81.62
75786;DHT22;64402;44.708;37.644;2023-08-31T01:26:25;22.64;81.72
75786;DHT22;64402;44.708;37.644;2023-08-31T01:28:52;22.64;81.49
75786;DHT22;64402;44.708;37.644;2023-08-31T01:31:19;22.67;81.33
75786;DHT22;64402;44.708;37.644;2023-08-31T01:33:46;22.72;80.78
75786;DHT22;64402;44.708;37.644;2023-08-31T01:36:27;22.76;80.89
75786;DHT22;64402;44.708;37.644;2023-08-31T01:39:19;22.71;81.31
75786;DHT22;64402;44.708;37.644;2023-08-31T01:41:48;22.71;81.07
75786;DHT22;64402;44.708;37.644;2023-08-31T01:44:18;22.79;80.47
75786;DHT22;64402;44.708;37.644;2023-08-31T01:46:46;22.84;80.60
75786;DHT22;64402;44.708;37.644;2023-08-31T01:49:23;22.86;80.35
75786;DHT22;64402;44.708;37.644;2023-08-31T01:51:49;22.88;80.27
75786;DHT22;64402;44.708;37.644;2023-08-31T01:54:15;22.91;79.95
75786;DHT22;64402;44.708;37.644;2023-08-31T01:56:41;22.96;80.01
75786;DHT22;64402;44.708;37.644;2023-08-31T01:59:07;22.95;80.17
75786;DHT22;64402;44.708;37.644;2023-08-31T02:01:33;22.90;81.26
75786;DHT22;64402;44.708;37.644;2023-08-31T02:04:00;22.85;81.10
75786;DHT22;64402;44.708;37.644;2023-08-31T02:06:26;22.82;81.38
75786;DHT22;64402;44.708;37.644;2023-08-31T02:08:52;22.72;81.83
75786;DHT22;64402;44.708;37.644;2023-08-31T02:11:18;22.72;81.30
75786;DHT22;64402;44.708;37.644;2023-08-31T02:13:47;22.68;82.23
75786;DHT22;64402;44.708;37.644;2023-08-31T02:16:13;22.63;82.02
75786;DHT22;64402;44.708;37.644;2023-08-31T02:18:39;22.56;82.21
75786;DHT22;64402;44.708;37.644;2023-08-31T02:21:05;22.52;82.18
75786;DHT22;64402;44.708;37.644;2023-08-31T02:23:33;22.50;82.39
75786;DHT22;64402;44.708;37.644;2023-08-31T02:25:59;22.49;82.55
75786;DHT22;64402;44.708;37.644;2023-08-31T02:28:25;22.48;82.78
75786;DHT22;64402;44.708;37.644;2023-08-31T02:31:02;22.42;83.05
75786;DHT22;64402;44.708;37.644;2023-08-31T02:33:28;22.43;82.53
75786;DHT22;64402;44.708;37.644;2023-08-31T02:35:55;22.42;82.51
75786;DHT22;64402;44.708;37.644;2023-08-31T02:38:21;22.40;82.41
75786;DHT22;64402;44.708;37.644;2023-08-31T02:40:48;22.42;83.02
75786;DHT22;64402;44.708;37.644;2023-08-31T02:43:15;22.47;83.18
75786;DHT22;64402;44.708;37.644;2023-08-31T02:45:41;22.51;83.40
75786;DHT22;64402;44.708;37.644;2023-08-31T02:48:07;22.51;83.10
75786;DHT22;64402;44.708;37.644;2023-08-31T02:50:34;22.46;82.42
75786;DHT22;64402;44.708;37.644;2023-08-31T02:53:01;22.43;82.45
75786;DHT22;64402;44.708;37.644;2023-08-31T02:55:27;22.43;83.54
75786;DHT22;64402;44.708;37.644;2023-08-31T02:57:54;22.43;82.80
75786;DHT22;64402;44.708;37.644;2023-08-31T03:00:20;22.47;82.75
75786;DHT22;64402;44.708;37.644;2023-08-31T03:02:49;22.47;83.12
75786;DHT22;64402;44.708;37.644;2023-08-31T03:05:19;22.44;83.29
75786;DHT22;64402;44.708;37.644;2023-08-31T03:07:47;22.40;83.90
75786;DHT22;64402;44.708;37.644;2023-08-31T03:10:15;22.42;83.83
75786;DHT22;64402;44.708;37.644;2023-08-31T03:12:41;22.47;83.67
75786;DHT22;64402;44.708;37.644;2023-08-31T03:15:08;22.49;83.08
75786;DHT22;64402;44.708;37.644;2023-08-31T03:17:34;22.52;83.13
75786;DHT22;64402;44.708;37.644;2023-08-31T03:20:00;22.56;83.01
75786;DHT22;64402;44.708;37.644;2023-08-31T03:22:27;22.62;83.21
75786;DHT22;64402;44.708;37.644;2023-08-31T03:24:53;22.66;83.36
75786;DHT22;64402;44.708;37.644;2023-08-31T03:27:19;22.69;83.36
75786;DHT22;64402;44.708;37.644;2023-08-31T03:29:46;22.75;82.88
75786;DHT22;64402;44.708;37.644;2023-08-31T03:32:12;22.75;83.83
75786;DHT22;64402;44.708;37.644;2023-08-31T03:34:38;22.75;83.43
75786;DHT22;64402;44.708;37.644;2023-08-31T03:37:04;22.80;83.80
75786;DHT22;64402;44.708;37.644;2023-08-31T03:39:31;22.83;83.67
75786;DHT22;64402;44.708;37.644;2023-08-31T03:41:57;22.88;84.18
75786;DHT22;64402;44.708;37.644;2023-08-31T03:44:23;22.97;83.70
75786;DHT22;64402;44.708;37.644;2023-08-31T03:46:49;23.03;84.34
75786;DHT22;64402;44.708;37.644;2023-08-31T03:49:15;23.11;83.83
75786;DHT22;64402;44.708;37.644;2023-08-31T03:51:41;23.20;82.96
75786;DHT22;64402;44.708;37.644;2023-08-31T03:54:07;23.26;83.13
75786;DHT22;64402;44.708;37.644;2023-08-31T03:56:33;23.35;83.60
75786;DHT22;64402;44.708;37.644;2023-08-31T03:59:02;23.42;82.90
75786;DHT22;64402;44.708;37.644;2023-08-31T04:01:30;23.47;83.16
75786;DHT22;64402;44.708;37.644;2023-08-31T04:03:56;23.54;83.00
75786;DHT22;64402;44.708;37.644;2023-08-31T04:06:22;23.61;83.25
75786;DHT22;64402;44.708;37.644;2023-08-31T04:08:48;23.67;83.96
75786;DHT22;64402;44.708;37.644;2023-08-31T04:11:14;23.71;83.40
75786;DHT22;64402;44.708;37.644;2023-08-31T04:13:40;23.80;83.35
75786;DHT22;64402;44.708;37.644;2023-08-31T04:16:07;23.89;84.18
75786;DHT22;64402;44.708;37.644;2023-08-31T04:18:33;23.96;84.03
75786;DHT22;64402;44.708;37.644;2023-08-31T04:20:59;24.03;85.11
75786;DHT22;64402;44.708;37.644;2023-08-31T04:23:29;24.10;84.11
75786;DHT22;64402;44.708;37.644;2023-08-31T04:25:55;24.16;83.89
75786;DHT22;64402;44.708;37.644;2023-08-31T04:28:23;24.20;83.10
75786;DHT22;64402;44.708;37.644;2023-08-31T04:30:50;24.26;83.10
75786;DHT22;64402;44.708;37.644;2023-08-31T04:33:17;24.31;82.67
75786;DHT22;64402;44.708;37.644;2023-08-31T04:35:43;24.42;82.74
75786;DHT22;64402;44.708;37.644;2023-08-31T04:38:10;24.51;81.81
75786;DHT22;64402;44.708;37.644;2023-08-31T04:40:36;24.64;81.27
75786;DHT22;64402;44.708;37.644;2023-08-31T04:43:03;24.74;81.24
75786;DHT22;64402;44.708;37.644;2023-08-31T04:45:29;24.83;80.49
75786;DHT22;64402;44.708;37.644;2023-08-31T04:47:56;24.91;81.34
75786;DHT22;64402;44.708;37.644;2023-08-31T04:50:22;25.00;83.00
75786;DHT22;64402;44.708;37.644;2023-08-31T04:52:49;25.08;83.09
75786;DHT22;64402;44.708;37.644;2023-08-31T04:55:15;25.18;83.00
75786;DHT22;64402;44.708;37.644;2023-08-31T04:57:41;25.32;81.62
75786;DHT22;64402;44.708;37.644;2023-08-31T05:00:07;25.45;81.98
75786;DHT22;64402;44.708;37.644;2023-08-31T05:02:37;25.56;81.47
75786;DHT22;64402;44.708;37.644;2023-08-31T05:05:05;25.67;81.62
75786;DHT22;64402;44.708;37.644;2023-08-31T05:07:31;25.77;80.89
75786;DHT22;64402;44.708;37.644;2023-08-31T05:09:57;25.89;80.43
75786;DHT22;64402;44.708;37.644;2023-08-31T05:12:23;26.01;80.46
75786;DHT22;64402;44.708;37.644;2023-08-31T05:14:50;26.12;80.27
75786;DHT22;64402;44.708;37.644;2023-08-31T05:17:16;26.25;79.84
75786;DHT22;64402;44.708;37.644;2023-08-31T05:19:42;26.30;79.72
75786;DHT22;64402;44.708;37.644;2023-08-31T05:22:08;26.36;79.06
75786;DHT22;64402;44.708;37.644;2023-08-31T05:24:34;26.49;78.36
75786;DHT22;64402;44.708;37.644;2023-08-31T05:27:01;26.62;77.97
75786;DHT22;64402;44.708;37.644;2023-08-31T05:29:29;26.70;77.47
75786;DHT22;64402;44.708;37.644;2023-08-31T05:31:55;26.81;77.36
75786;DHT22;64402;44.708;37.644;2023-08-31T05:34:21;26.95;76.45
75786;DHT22;64402;44.708;37.644;2023-08-31T05:36:48;27.06;76.32
75786;DHT22;64402;44.708;37.644;2023-08-31T05:39:14;27.19;75.73
75786;DHT22;64402;44.708;37.644;2023-08-31T05:41:43;27.26;75.37
75786;DHT22;64402;44.708;37.644;2023-08-31T05:44:10;27.32;75.33
75786;DHT22;64402;44.708;37.644;2023-08-31T05:46:36;27.40;74.88
75786;DHT22;64402;44.708;37.644;2023-08-31T05:49:04;27.45;74.73
75786;DHT22;64402;44.708;37.644;2023-08-31T05:51:30;27.52;74.57
75786;DHT22;64402;44.708;37.644;2023-08-31T05:53:56;27.55;74.00
75786;DHT22;64402;44.708;37.644;2023-08-31T05:56:22;27.68;73.81
75786;DHT22;64402;44.708;37.644;2023-08-31T05:58:48;27.83;73.41
75786;DHT22;64402;44.708;37.644;2023-08-31T06:01:16;27.96;73.07
75786;DHT22;64402;44.708;37.644;2023-08-31T06:03:42;28.11;72.45
75786;DHT22;64402;44.708;37.644;2023-08-31T06:06:09;28.18;72.17
75786;DHT22;64402;44.708;37.644;2023-08-31T06:08:35;28.26;71.91
75786;DHT22;64402;44.708;37.644;2023-08-31T06:11:01;28.24;72.06
75786;DHT22;64402;44.708;37.644;2023-08-31T06:13:27;28.33;73.36
75786;DHT22;64402;44.708;37.644;2023-08-31T06:15:53;28.45;72.89
75786;DHT22;64402;44.708;37.644;2023-08-31T06:18:21;28.45;73.28
75786;DHT22;64402;44.708;37.644;2023-08-31T06:20:49;28.47;72.82
75786;DHT22;64402;44.708;37.644;2023-08-31T06:23:15;28.52;72.18
75786;DHT22;64402;44.708;37.644;2023-08-31T06:25:42;28.58;71.22
75786;DHT22;64402;44.708;37.644;2023-08-31T06:28:08;28.64;70.78
75786;DHT22;64402;44.708;37.644;2023-08-31T06:30:37;28.77;69.63
75786;DHT22;64402;44.708;37.644;2023-08-31T06:33:04;28.85;68.46
75786;DHT22;64402;44.708;37.644;2023-08-31T06:35:30;28.90;66.57
75786;DHT22;64402;44.708;37.644;2023-08-31T06:37:59;28.97;67.69
75786;DHT22;64402;44.708;37.644;2023-08-31T06:40:25;29.03;65.91
75786;DHT22;64402;44.708;37.644;2023-08-31T06:42:51;29.12;66.10
75786;DHT22;64402;44.708;37.644;2023-08-31T06:45:17;29.26;64.74
75786;DHT22;64402;44.708;37.644;2023-08-31T06:47:44;29.43;65.60
75786;DHT22;64402;44.708;37.644;2023-08-31T06:50:10;29.53;64.99
75786;DHT22;64402;44.708;37.644;2023-08-31T06:52:36;29.49;64.79
75786;DHT22;64402;44.708;37.644;2023-08-31T06:55:03;29.44;64.60
75786;DHT22;64402;44.708;37.644;2023-08-31T06:57:29;29.43;62.66
75786;DHT22;64402;44.708;37.644;2023-08-31T07:02:58;29.46;63.27
75786;DHT22;64402;44.708;37.644;2023-08-31T07:05:27;29.58;61.44
75786;DHT22;64402;44.708;37.644;2023-08-31T07:07:55;29.66;61.63
75786;DHT22;64402;44.708;37.644;2023-08-31T07:10:22;29.85;60.99
75786;DHT22;64402;44.708;37.644;2023-08-31T07:12:48;29.95;59.27
75786;DHT22;64402;44.708;37.644;2023-08-31T07:15:14;29.93;59.38
75786;DHT22;64402;44.708;37.644;2023-08-31T07:17:40;29.98;59.83
75786;DHT22;64402;44.708;37.644;2023-08-31T07:20:06;30.18;59.55
75786;DHT22;64402;44.708;37.644;2023-08-31T07:22:34;30.23;55.85
75786;DHT22;64402;44.708;37.644;2023-08-31T07:25:00;30.32;56.42
75786;DHT22;64402;44.708;37.644;2023-08-31T07:27:26;30.50;56.36
75786;DHT22;64402;44.708;37.644;2023-08-31T07:29:56;30.40;55.58
75786;DHT22;64402;44.708;37.644;2023-08-31T07:32:22;30.32;55.68
75786;DHT22;64402;44.708;37.644;2023-08-31T07:34:48;30.47;57.31
75786;DHT22;64402;44.708;37.644;2023-08-31T07:37:14;30.53;55.87
75786;DHT22;64402;44.708;37.644;2023-08-31T07:39:40;30.76;54.45
75786;DHT22;64402;44.708;37.644;2023-08-31T07:42:06;30.68;54.97
75786;DHT22;64402;44.708;37.644;2023-08-31T07:44:32;30.77;54.27
75786;DHT22;64402;44.708;37.644;2023-08-31T07:46:59;30.72;54.54
75786;DHT22;64402;44.708;37.644;2023-08-31T07:49:25;30.74;54.28
75786;DHT22;64402;44.708;37.644;2023-08-31T07:51:51;30.78;54.35
75786;DHT22;64402;44.708;37.644;2023-08-31T07:54:23;31.16;53.30
75786;DHT22;64402;44.708;37.644;2023-08-31T07:56:49;32.22;50.66
75786;DHT22;64402;44.708;37.644;2023-08-31T07:59:16;33.95;45.61
75786;DHT22;64402;44.708;37.644;2023-08-31T08:01:43;35.04;42.41
75786;DHT22;64402;44.708;37.644;2023-08-31T08:04:11;35.97;39.27
75786;DHT22;64402;44.708;37.644;2023-08-31T08:06:37;36.39;39.86
75786;DHT22;64402;44.708;37.644;2023-08-31T08:09:03;37.07;38.65
75786;DHT22;64402;44.708;37.644;2023-08-31T08:11:31;37.23;37.72
75786;DHT22;64402;44.708;37.644;2023-08-31T08:13:57;37.42;36.95
75786;DHT22;64402;44.708;37.644;2023-08-31T08:16:23;37.23;38.01
75786;DHT22;64402;44.708;37.644;2023-08-31T08:18:50;37.88;37.28
75786;DHT22;64402;44.708;37.644;2023-08-31T08:21:16;38.25;36.03
75786;DHT22;64402;44.708;37.644;2023-08-31T08:23:42;38.56;34.99
75786;DHT22;64402;44.708;37.644;2023-08-31T08:26:08;38.94;33.56
75786;DHT22;64402;44.708;37.644;2023-08-31T08:28:34;38.94;32.33
75786;DHT22;64402;44.708;37.644;2023-08-31T08:31:02;39.40;32.15
75786;DHT22;64402;44.708;37.644;2023-08-31T08:33:31;39.38;32.30
75786;DHT22;64402;44.708;37.644;2023-08-31T08:35:57;39.95;31.05
75786;DHT22;64402;44.708;37.644;2023-08-31T08:38:25;39.89;30.80
75786;DHT22;64402;44.708;37.644;2023-08-31T08:40:51;39.97;30.68
75786;DHT22;64402;44.708;37.644;2023-08-31T08:43:25;40.30;29.71
75786;DHT22;64402;44.708;37.644;2023-08-31T08:45:53;40.52;29.28
75786;DHT22;64402;44.708;37.644;2023-08-31T08:48:20;40.59;28.90
75786;DHT22;64402;44.708;37.644;2023-08-31T08:50:47;41.17;28.07
75786;DHT22;64402;44.708;37.644;2023-08-31T08:53:14;41.32;28.19
75786;DHT22;64402;44.708;37.644;2023-08-31T08:55:41;41.45;26.19
75786;DHT22;64402;44.708;37.644;2023-08-31T08:58:07;41.86;26.49
75786;DHT22;64402;44.708;37.644;2023-08-31T09:00:34;42.55;25.17
75786;DHT22;64402;44.708;37.644;2023-08-31T09:03:01;42.08;26.88
75786;DHT22;64402;44.708;37.644;2023-08-31T09:05:32;42.55;25.14
75786;DHT22;64402;44.708;37.644;2023-08-31T09:08:07;42.55;23.08
75786;DHT22;64402;44.708;37.644;2023-08-31T09:10:44;42.81;23.80
75786;DHT22;64402;44.708;37.644;2023-08-31T09:13:15;42.98;22.12
75786;DHT22;64402;44.708;37.644;2023-08-31T09:15:48;42.95;23.98
75786;DHT22;64402;44.708;37.644;2023-08-31T09:18:16;42.45;24.46
75786;DHT22;64402;44.708;37.644;2023-08-31T09:20:46;43.04;24.47
75786;DHT22;64402;44.708;37.644;2023-08-31T09:23:13;43.25;24.24
75786;DHT22;64402;44.708;37.644;2023-08-31T09:25:47;43.24;23.22
75786;DHT22;64402;44.708;37.644;2023-08-31T09:28:23;42.83;24.40
75786;DHT22;64402;44.708;37.644;2023-08-31T09:30:53;43.25;22.07
75786;DHT22;64402;44.708;37.644;2023-08-31T09:33:27;44.09;22.66
75786;DHT22;64402;44.708;37.644;2023-08-31T09:35:58;44.51;19.61
75786;DHT22;64402;44.708;37.644;2023-08-31T09:38:25;44.69;20.65
75786;DHT22;64402;44.708;37.644;2023-08-31T09:40:51;44.76;20.18
75786;DHT22;64402;44.708;37.644;2023-08-31T09:43:21;45.04;18.03
75786;DHT22;64402;44.708;37.644;2023-08-31T09:45:49;45.10;19.49
75786;DHT22;64402;44.708;37.644;2023-08-31T09:48:16;44.98;19.05
75786;DHT22;64402;44.708;37.644;2023-08-31T09:50:44;44.70;17.75
75786;DHT22;64402;44.708;37.644;2023-08-31T09:53:11;44.42;19.35
75786;DHT22;64402;44.708;37.644;2023-08-31T09:55:41;44.51;18.95
75786;DHT22;64402;44.708;37.644;2023-08-31T09:58:09;44.70;18.69
75786;DHT22;64402;44.708;37.644;2023-08-31T10:00:36;45.74;18.16
75786;DHT22;64402;44.708;37.644;2023-08-31T10:03:04;45.64;17.96
75786;DHT22;64402;44.708;37.644;2023-08-31T10:05:31;45.12;18.38
75786;DHT22;64402;44.708;37.644;2023-08-31T10:08:00;44.39;19.94
75786;DHT22;64402;44.708;37.644;2023-08-31T10:10:28;43.77;20.43
75786;DHT22;64402;44.708;37.644;2023-08-31T10:12:55;43.94;20.03
75786;DHT22;64402;44.708;37.644;2023-08-31T10:15:22;44.38;21.17
75786;DHT22;64402;44.708;37.644;2023-08-31T10:17:49;44.87;19.65
75786;DHT22;64402;44.708;37.644;2023-08-31T10:20:16;45.49;19.58
75786;DHT22;64402;44.708;37.644;2023-08-31T10:22:43;45.74;18.66
75786;DHT22;64402;44.708;37.644;2023-08-31T10:25:10;45.54;18.06
75786;DHT22;64402;44.708;37.644;2023-08-31T10:27:39;44.84;17.69
75786;DHT22;64402;44.708;37.644;2023-08-31T10:30:28;44.94;17.46
75786;DHT22;64402;44.708;37.644;2023-08-31T10:35:48;46.20;16.75
75786;DHT22;64402;44.708;37.644;2023-08-31T10:38:15;45.98;16.88
75786;DHT22;64402;44.708;37.644;2023-08-31T10:40:41;46.39;16.58
75786;DHT22;64402;44.708;37.644;2023-08-31T10:43:15;45.57;17.58
75786;DHT22;64402;44.708;37.644;2023-08-31T10:45:45;46.15;17.77
75786;DHT22;64402;44.708;37.644;2023-08-31T10:48:11;45.87;18.41
75786;DHT22;64402;44.708;37.644;2023-08-31T10:50:41;46.31;17.48
75786;DHT22;64402;44.708;37.644;2023-08-31T10:53:09;46.21;17.32
75786;DHT22;64402;44.708;37.644;2023-08-31T10:55:50;47.86;16.51
75786;DHT22;64402;44.708;37.644;2023-08-31T10:58:17;46.59;18.43
75786;DHT22;64402;44.708;37.644;2023-08-31T11:00:52;46.21;18.44
75786;DHT22;64402;44.708;37.644;2023-08-31T11:03:19;46.74;18.70
75786;DHT22;64402;44.708;37.644;2023-08-31T11:05:52;46.49;18.35
75786;DHT22;64402;44.708;37.644;2023-08-31T11:08:24;46.29;19.09
75786;DHT22;64402;44.708;37.644;2023-08-31T11:10:53;46.07;20.02
75786;DHT22;64402;44.708;37.644;2023-08-31T11:13:20;46.79;18.45
75786;DHT22;64402;44.708;37.644;2023-08-31T11:15:46;47.49;16.98
75786;DHT22;64402;44.708;37.644;2023-08-31T11:18:13;48.14;15.91
75786;DHT22;64402;44.708;37.644;2023-08-31T11:20:44;48.01;15.77
75786;DHT22;64402;44.708;37.644;2023-08-31T11:23:10;47.82;16.51
75786;DHT22;64402;44.708;37.644;2023-08-31T11:25:36;47.72;16.87
75786;DHT22;64402;44.708;37.644;2023-08-31T11:28:05;47.54;16.71
75786;DHT22;64402;44.708;37.644;2023-08-31T11:30:33;47.52;16.42
75786;DHT22;64402;44.708;37.644;2023-08-31T11:33:03;47.24;16.08
75786;DHT22;64402;44.708;37.644;2023-08-31T11:38:25;46.79;17.56
75786;DHT22;64402;44.708;37.644;2023-08-31T11:40:56;46.35;17.41
75786;DHT22;64402;44.708;37.644;2023-08-31T11:43:23;45.91;18.04
75786;DHT22;64402;44.708;37.644;2023-08-31T11:45:50;45.93;18.19
75786;DHT22;64402;44.708;37.644;2023-08-31T11:48:16;46.66;17.20
75786;DHT22;64402;44.708;37.644;2023-08-31T11:50:43;47.64;15.00
75786;DHT22;64402;44.708;37.644;2023-08-31T11:53:09;47.70;15.92
75786;DHT22;64402;44.708;37.644;2023-08-31T11:55:35;47.10;16.67
75786;DHT22;64402;44.708;37.644;2023-08-31T11:58:01;47.18;16.56
75786;DHT22;64402;44.708;37.644;2023-08-31T12:00:29;47.10;16.98
75786;DHT22;64402;44.708;37.644;2023-08-31T12:02:57;46.88;16.17
75786;DHT22;64402;44.708;37.644;2023-08-31T12:05:23;46.89;16.74
75786;DHT22;64402;44.708;37.644;2023-08-31T12:07:50;46.59;17.07
75786;DHT22;64402;44.708;37.644;2023-08-31T12:10:16;47.42;15.71
75786;DHT22;64402;44.708;37.644;2023-08-31T12:12:42;46.89;15.77
75786;DHT22;64402;44.708;37.644;2023-08-31T12:15:10;46.97;16.16
75786;DHT22;64402;44.708;37.644;2023-08-31T12:17:40;46.90;16.59
75786;DHT22;64402;44.708;37.644;2023-08-31T12:20:07;46.27;17.35
75786;DHT22;64402;44.708;37.644;2023-08-31T12:22:33;45.99;18.15
75786;DHT22;64402;44.708;37.644;2023-08-31T12:24:59;45.53;17.86
75786;DHT22;64402;44.708;37.644;2023-08-31T12:27:25;45.65;17.54
75786;DHT22;64402;44.708;37.644;2023-08-31T12:29:52;45.14;18.76
75786;DHT22;64402;44.708;37.644;2023-08-31T12:32:18;45.79;17.47
75786;DHT22;64402;44.708;37.644;2023-08-31T12:34:44;46.46;16.33
75786;DHT22;64402;44.708;37.644;2023-08-31T12:37:10;46.65;16.71
75786;DHT22;64402;44.708;37.644;2023-08-31T12:39:36;46.84;16.03
75786;DHT22;64402;44.708;37.644;2023-08-31T12:42:03;47.03;15.56
75786;DHT22;64402;44.708;37.644;2023-08-31T12:44:30;46.81;16.03
75786;DHT22;64402;44.708;37.644;2023-08-31T12:46:56;47.24;15.29
75786;DHT22;64402;44.708;37.644;2023-08-31T12:49:23;47.43;15.48
75786;DHT22;64402;44.708;37.644;2023-08-31T12:51:49;46.77;16.24
75786;DHT22;64402;44.708;37.644;2023-08-31T12:54:17;46.73;17.08
75786;DHT22;64402;44.708;37.644;2023-08-31T12:56:43;47.06;16.45
75786;DHT22;64402;44.708;37.644;2023-08-31T12:59:09;47.07;16.30
75786;DHT22;64402;44.708;37.644;2023-08-31T13:01:35;46.96;16.51
75786;DHT22;64402;44.708;37.644;2023-08-31T13:04:02;46.55;16.95
75786;DHT22;64402;44.708;37.644;2023-08-31T13:06:28;46.18;17.43
75786;DHT22;64402;44.708;37.644;2023-08-31T13:08:54;46.05;17.75
75786;DHT22;64402;44.708;37.644;2023-08-31T13:11:20;45.30;18.86
75786;DHT22;64402;44.708;37.644;2023-08-31T13:13:50;44.66;19.74
75786;DHT22;64402;44.708;37.644;2023-08-31T13:16:19;44.14;20.67
75786;DHT22;64402;44.708;37.644;2023-08-31T13:18:47;43.67;22.40
75786;DHT22;64402;44.708;37.644;2023-08-31T13:21:13;43.80;21.60
75786;DHT22;64402;44.708;37.644;2023-08-31T13:23:39;43.44;20.91
75786;DHT22;64402;44.708;37.644;2023-08-31T13:26:08;43.66;21.54
75786;DHT22;64402;44.708;37.644;2023-08-31T13:28:34;43.26;22.37
75786;DHT22;64402;44.708;37.644;2023-08-31T13:31:00;43.69;20.47
75786;DHT22;64402;44.708;37.644;2023-08-31T13:33:27;43.18;21.76
75786;DHT22;64402;44.708;37.644;2023-08-31T13:35:57;42.98;21.44
75786;DHT22;64402;44.708;37.644;2023-08-31T13:38:27;42.87;21.47
75786;DHT22;64402;44.708;37.644;2023-08-31T13:40:56;41.84;23.47
75786;DHT22;64402;44.708;37.644;2023-08-31T13:43:23;42.21;23.51
75786;DHT22;64402;44.708;37.644;2023-08-31T13:45:49;41.98;22.47
75786;DHT22;64402;44.708;37.644;2023-08-31T13:48:15;42.07;22.90
75786;DHT22;64402;44.708;37.644;2023-08-31T13:50:42;42.20;23.21
75786;DHT22;64402;44.708;37.644;2023-08-31T13:53:08;41.78;24.27
75786;DHT22;64402;44.708;37.644;2023-08-31T13:55:34;41.73;24.17
75786;DHT22;64402;44.708;37.644;2023-08-31T13:58:04;41.64;24.62
75786;DHT22;64402;44.708;37.644;2023-08-31T14:00:31;41.35;24.97
75786;DHT22;64402;44.708;37.644;2023-08-31T14:02:57;41.45;25.28
75786;DHT22;64402;44.708;37.644;2023-08-31T14:05:24;40.97;25.71
75786;DHT22;64402;44.708;37.644;2023-08-31T14:07:50;40.92;26.11
75786;DHT22;64402;44.708;37.644;2023-08-31T14:10:16;41.00;26.35
75786;DHT22;64402;44.708;37.644;2023-08-31T14:12:42;41.05;26.04
75786;DHT22;64402;44.708;37.644;2023-08-31T14:15:12;41.12;25.62
75786;DHT22;64402;44.708;37.644;2023-08-31T14:17:38;41.42;24.65
75786;DHT22;64402;44.708;37.644;2023-08-31T14:20:04;41.39;24.65
75786;DHT22;64402;44.708;37.644;2023-08-31T14:22:32;41.47;24.27
75786;DHT22;64402;44.708;37.644;2023-08-31T14:24:59;41.33;24.49
75786;DHT22;64402;44.708;37.644;2023-08-31T14:27:26;41.13;24.86
75786;DHT22;64402;44.708;37.644;2023-08-31T14:29:53;40.81;25.73
75786;DHT22;64402;44.708;37.644;2023-08-31T14:32:19;40.67;26.00
75786;DHT22;64402;44.708;37.644;2023-08-31T14:34:45;40.67;25.70
75786;DHT22;64402;44.708;37.644;2023-08-31T14:37:12;40.62;25.52
75786;DHT22;64402;44.708;37.644;2023-08-31T14:39:38;40.18;26.29
75786;DHT22;64402;44.708;37.644;2023-08-31T14:42:04;40.22;26.16
75786;DHT22;64402;44.708;37.644;2023-08-31T14:44:30;40.07;26.65
75786;DHT22;64402;44.708;37.644;2023-08-31T14:46:57;40.06;26.79
75786;DHT22;64402;44.708;37.644;2023-08-31T14:49:23;40.31;25.78
75786;DHT22;64402;44.708;37.644;2023-08-31T14:51:51;39.97;26.10
75786;DHT22;64402;44.708;37.644;2023-08-31T14:54:17;39.45;26.56
75786;DHT22;64402;44.708;37.644;2023-08-31T14:56:43;38.96;27.68
75786;DHT22;64402;44.708;37.644;2023-08-31T14:59:09;38.76;27.79
75786;DHT22;64402;44.708;37.644;2023-08-31T15:01:35;38.63;27.98
75786;DHT22;64402;44.708;37.644;2023-08-31T15:04:04;38.53;28.61
75786;DHT22;64402;44.708;37.644;2023-08-31T15:06:30;38.46;28.93
75786;DHT22;64402;44.708;37.644;2023-08-31T15:08:58;38.23;29.16
75786;DHT22;64402;44.708;37.644;2023-08-31T15:11:28;38.18;29.74
75786;DHT22;64402;44.708;37.644;2023-08-31T15:13:54;38.12;29.95
75786;DHT22;64402;44.708;37.644;2023-08-31T15:16:21;37.92;30.36
75786;DHT22;64402;44.708;37.644;2023-08-31T15:18:47;37.59;30.89
75786;DHT22;64402;44.708;37.644;2023-08-31T15:21:13;37.40;31.69
75786;DHT22;64402;44.708;37.644;2023-08-31T15:23:41;37.35;31.45
75786;DHT22;64402;44.708;37.644;2023-08-31T15:26:07;37.08;31.75
75786;DHT22;64402;44.708;37.644;2023-08-31T15:28:34;36.75;32.31